createdAt,value
2022-10-01T00:01:57.914Z,18.50
2022-10-01T00:04:24.159Z,16.77
2022-10-01T00:06:50.283Z,16.98
2022-10-01T00:09:16.395Z,16.30
2022-10-01T00:11:42.511Z,17.88
2022-10-01T00:14:08.803Z,16.88
2022-10-01T00:16:35.179Z,17.05
2022-10-01T00:19:01.712Z,16.83
2022-10-01T00:21:31.954Z,16.85
2022-10-01T00:24:05.857Z,18.52
2022-10-01T00:26:34.477Z,17.30
2022-10-01T00:29:03.782Z,16.90
2022-10-01T00:31:30.886Z,17.67
2022-10-01T00:33:59.008Z,15.63
2022-10-01T00:36:26.534Z,14.93
2022-10-01T00:38:52.934Z,15.70
2022-10-01T00:41:19.428Z,16.40
2022-10-01T00:43:56.034Z,16.23
2022-10-01T00:46:25.235Z,15.07
2022-10-01T00:49:02.511Z,15.32
2022-10-01T00:51:35.956Z,15.52
2022-10-01T00:54:08.822Z,16.90
2022-10-01T00:56:35.567Z,16.48
2022-10-01T00:59:02.155Z,16.23
2022-10-01T01:01:28.810Z,16.08
2022-10-01T01:03:56.461Z,16.73
2022-10-01T01:06:22.570Z,16.77
2022-10-01T01:08:55.308Z,17.20
2022-10-01T01:11:34.200Z,16.73
2022-10-01T01:14:25.286Z,16.02
2022-10-01T01:17:08.737Z,16.95
2022-10-01T01:19:50.619Z,18.02
2022-10-01T01:22:20.004Z,16.92
2022-10-01T01:25:03.936Z,17.10
2022-10-01T01:27:39.765Z,16.52
2022-10-01T01:30:10.890Z,17.27
2022-10-01T01:32:52.041Z,16.50
2022-10-01T01:35:24.531Z,16.25
2022-10-01T01:37:57.292Z,15.73
2022-10-01T01:40:25.483Z,16.10
2022-10-01T01:42:54.714Z,17.42
2022-10-01T01:45:25.708Z,16.85
2022-10-01T01:47:56.155Z,16.13
2022-10-01T01:50:25.671Z,16.80
2022-10-01T01:52:54.394Z,15.60
2022-10-01T01:55:25.774Z,16.95
2022-10-01T01:57:53.241Z,16.88
2022-10-01T02:00:19.388Z,16.98
2022-10-01T02:02:50.809Z,17.52
2022-10-01T02:05:21.362Z,16.92
2022-10-01T02:08:08.735Z,17.30
2022-10-01T02:10:51.516Z,16.35
2022-10-01T02:13:42.395Z,15.38
2022-10-01T02:16:21.147Z,14.80
2022-10-01T02:19:03.792Z,14.98
2022-10-01T02:21:44.964Z,15.48
2022-10-01T02:24:21.379Z,15.07
2022-10-01T02:26:50.647Z,15.40
2022-10-01T02:29:21.230Z,17.55
2022-10-01T02:31:49.603Z,17.15
2022-10-01T02:34:20.298Z,17.35
2022-10-01T02:36:47.968Z,16.52
2022-10-01T02:39:16.788Z,16.27
2022-10-01T02:41:44.468Z,15.55
2022-10-01T02:44:15.346Z,16.83
2022-10-01T02:46:53.882Z,16.60
2022-10-01T02:49:20.322Z,15.95
2022-10-01T02:52:06.638Z,17.00
2022-10-01T02:54:40.439Z,18.25
2022-10-01T02:57:27.058Z,18.00
2022-10-01T03:00:01.497Z,16.83
2022-10-01T03:02:29.651Z,17.67
2022-10-01T03:04:59.210Z,18.63
2022-10-01T03:07:27.084Z,17.83
2022-10-01T03:09:53.381Z,17.80
2022-10-01T03:12:19.741Z,18.83
2022-10-01T03:14:46.237Z,17.27
2022-10-01T03:17:13.435Z,18.23
2022-10-01T03:19:39.590Z,17.95
2022-10-01T03:22:06.357Z,18.17
2022-10-01T03:24:32.566Z,18.27
2022-10-01T03:26:59.083Z,19.00
2022-10-01T03:29:26.098Z,18.23
2022-10-01T03:31:53.060Z,18.20
2022-10-01T03:34:19.945Z,18.88
2022-10-01T03:36:47.107Z,18.15
2022-10-01T03:39:13.574Z,18.67
2022-10-01T03:41:40.233Z,19.27
2022-10-01T03:44:06.370Z,19.88
2022-10-01T03:46:32.648Z,19.48
2022-10-01T03:49:00.893Z,19.92
2022-10-01T03:51:28.484Z,21.05
2022-10-01T03:53:56.195Z,19.42
2022-10-01T03:56:22.571Z,21.05
2022-10-01T03:58:48.822Z,20.38
2022-10-01T04:01:14.992Z,21.50
2022-10-01T04:03:41.605Z,20.30
2022-10-01T04:06:07.938Z,20.73
2022-10-01T04:08:34.087Z,22.20
2022-10-01T04:11:01.165Z,21.85
2022-10-01T04:13:27.867Z,21.27
2022-10-01T04:15:54.020Z,22.08
2022-10-01T04:18:21.641Z,22.38
2022-10-01T04:20:48.538Z,21.40
2022-10-01T10:21:38.062Z,4.53
2022-10-01T10:24:21.028Z,4.07
2022-10-01T10:26:53.962Z,3.50
2022-10-01T10:29:34.795Z,3.63
2022-10-01T10:32:19.261Z,3.38
2022-10-01T10:34:48.832Z,3.30
2022-10-01T10:37:18.441Z,3.47
2022-10-01T10:39:51.328Z,3.30
2022-10-01T10:42:23.106Z,3.63
2022-10-01T10:44:52.221Z,3.20
2022-10-01T10:47:20.203Z,3.60
2022-10-01T10:49:51.870Z,3.10
2022-10-01T10:52:24.505Z,4.35
2022-10-01T10:54:53.359Z,3.67
2022-10-01T10:57:23.836Z,3.80
2022-10-01T11:00:02.171Z,4.10
2022-10-01T11:02:30.651Z,4.07
2022-10-01T11:05:05.616Z,3.47
2022-10-01T11:07:32.392Z,3.45
2022-10-01T11:10:13.104Z,3.55
2022-10-01T11:12:56.659Z,3.45
2022-10-01T11:15:56.109Z,3.47
2022-10-01T11:18:43.281Z,3.47
2022-10-01T11:21:21.464Z,3.47
2022-10-01T11:24:10.406Z,4.35
2022-10-01T11:26:58.613Z,3.20
2022-10-01T11:29:39.650Z,3.30
2022-10-01T11:32:22.925Z,3.40
2022-10-01T11:35:22.123Z,3.53
2022-10-01T11:38:27.238Z,3.42
2022-10-01T11:41:15.871Z,3.80
2022-10-01T11:44:04.076Z,4.18
2022-10-01T11:46:55.510Z,3.42
2022-10-01T11:49:42.041Z,3.90
2022-10-01T11:52:37.293Z,4.10
2022-10-01T11:55:31.102Z,4.18
2022-10-01T11:58:23.870Z,4.18
2022-10-01T12:01:02.306Z,3.72
2022-10-01T12:03:34.514Z,4.32
2022-10-01T12:06:01.931Z,4.07
2022-10-01T12:08:34.896Z,4.18
2022-10-01T12:11:11.787Z,3.60
2022-10-01T12:13:44.348Z,4.40
2022-10-01T12:16:18.101Z,4.70
2022-10-01T12:18:56.252Z,4.47
2022-10-01T12:21:27.795Z,4.55
2022-10-01T12:24:13.002Z,4.30
2022-10-01T12:26:52.828Z,4.65
2022-10-01T12:29:40.686Z,4.55
2022-10-01T12:32:24.488Z,3.88
2022-10-01T12:35:13.659Z,4.30
2022-10-01T12:37:56.233Z,4.10
2022-10-01T12:40:31.199Z,3.58
2022-10-01T12:43:29.097Z,3.80
2022-10-01T12:46:07.173Z,3.88
2022-10-01T12:48:58.206Z,3.95
2022-10-01T12:51:39.248Z,3.80
2022-10-01T12:54:33.323Z,3.90
2022-10-01T12:57:38.199Z,3.75
2022-10-01T13:00:10.821Z,5.30
2022-10-01T13:02:58.469Z,3.65
2022-10-01T13:05:36.451Z,3.78
2022-10-01T13:08:18.282Z,3.95
2022-10-01T13:11:20.710Z,3.83
2022-10-01T13:13:52.226Z,3.65
2022-10-01T13:16:55.880Z,3.17
2022-10-01T13:19:53.343Z,3.75
2022-10-01T13:22:34.519Z,3.30
2022-10-01T13:25:43.742Z,3.55
2022-10-01T13:28:23.648Z,3.60
2022-10-01T13:30:53.048Z,3.67
2022-10-01T13:33:26.247Z,3.28
2022-10-01T13:35:55.891Z,3.45
2022-10-01T13:38:31.155Z,3.88
2022-10-01T13:41:03.149Z,3.45
2022-10-01T13:43:32.531Z,3.60
2022-10-01T13:46:08.995Z,3.47
2022-10-01T13:48:45.340Z,3.47
2022-10-01T13:51:13.613Z,3.35
2022-10-01T13:53:42.766Z,3.75
2022-10-01T13:56:14.474Z,3.53
2022-10-01T13:58:42.575Z,4.35
2022-10-01T14:01:23.673Z,3.58
2022-10-01T14:04:16.520Z,4.05
2022-10-01T14:06:58.649Z,4.25
2022-10-01T14:09:27.706Z,4.20
2022-10-01T14:12:17.355Z,5.00
2022-10-01T14:15:10.167Z,4.38
2022-10-01T14:17:36.923Z,4.05
2022-10-01T14:20:03.937Z,4.22
2022-10-01T14:22:38.899Z,3.45
2022-10-01T14:25:16.601Z,3.88
2022-10-01T14:27:57.446Z,3.85
2022-10-01T14:30:27.833Z,4.38
2022-10-01T14:33:20.724Z,3.70
2022-10-01T14:35:55.898Z,3.63
2022-10-01T14:38:22.667Z,3.83
2022-10-01T14:40:51.066Z,3.70
2022-10-01T14:43:25.557Z,3.90
2022-10-01T14:46:03.796Z,3.88
2022-10-01T14:48:35.198Z,3.72
2022-10-01T14:51:03.830Z,4.43
2022-10-01T14:53:38.350Z,3.67
2022-10-01T14:56:08.337Z,3.70
2022-10-01T14:58:42.575Z,4.13
2022-10-01T15:01:17.570Z,3.60
2022-10-01T15:03:44.370Z,3.80
2022-10-01T15:06:18.795Z,3.58
2022-10-01T15:08:47.998Z,3.67
2022-10-01T15:11:27.133Z,3.80
2022-10-01T15:13:56.738Z,3.47
2022-10-01T15:16:29.086Z,3.35
2022-10-01T15:18:57.867Z,3.40
2022-10-01T15:21:34.787Z,3.60
2022-10-01T15:24:04.295Z,3.67
2022-10-01T15:26:32.671Z,3.40
2022-10-01T15:29:12.100Z,3.47
2022-10-01T15:31:38.815Z,3.38
2022-10-01T15:34:07.051Z,3.42
2022-10-01T15:36:35.305Z,3.58
2022-10-01T15:39:04.618Z,3.88
2022-10-01T15:41:33.030Z,3.30
2022-10-01T15:44:03.375Z,3.33
2022-10-01T15:46:35.283Z,3.80
2022-10-01T15:49:12.459Z,3.50
2022-10-01T15:52:07.179Z,3.90
2022-10-01T15:54:34.490Z,3.33
2022-10-01T15:57:02.272Z,3.40
2022-10-01T15:59:28.661Z,3.83
2022-10-01T16:01:54.785Z,4.10
2022-10-01T16:04:21.187Z,3.53
2022-10-01T16:06:52.025Z,3.42
2022-10-01T16:09:27.721Z,3.38
2022-10-01T16:12:04.969Z,3.47
2022-10-01T16:14:39.380Z,3.38
2022-10-01T16:17:17.708Z,3.35
2022-10-01T16:19:48.174Z,3.38
2022-10-01T16:22:26.076Z,3.95
2022-10-01T16:25:26.451Z,3.47
2022-10-01T16:28:04.196Z,4.70
2022-10-01T16:30:32.571Z,3.90
2022-10-01T16:33:02.501Z,3.95
2022-10-01T16:35:35.720Z,3.88
2022-10-01T16:38:06.813Z,3.63
2022-10-01T16:40:38.730Z,4.38
2022-10-01T16:43:07.639Z,4.10
2022-10-01T16:45:37.820Z,4.65
2022-10-01T16:48:14.139Z,4.30
2022-10-01T16:50:40.385Z,4.20
2022-10-01T16:53:11.385Z,4.47
2022-10-01T16:55:37.721Z,4.78
2022-10-01T16:58:05.496Z,4.80
2022-10-01T17:00:32.665Z,4.50
2022-10-01T17:02:59.958Z,4.88
2022-10-01T17:05:31.813Z,5.50
2022-10-01T17:08:00.981Z,5.63
2022-10-01T17:10:31.079Z,6.00
2022-10-01T17:12:58.542Z,6.40
2022-10-01T17:15:27.092Z,5.80
2022-10-01T17:17:54.663Z,6.55
2022-10-01T17:20:22.183Z,6.20
2022-10-01T17:22:49.200Z,6.50
2022-10-01T17:25:18.486Z,6.32
2022-10-01T17:27:44.866Z,6.30
2022-10-01T17:30:11.466Z,6.57
2022-10-01T17:32:39.735Z,6.60
2022-10-01T17:35:07.404Z,5.82
2022-10-01T17:37:34.358Z,6.20
2022-10-01T17:40:00.674Z,5.95
2022-10-01T17:42:26.785Z,6.68
2022-10-01T17:44:54.659Z,6.43
2022-10-01T17:47:20.988Z,6.40
2022-10-01T17:49:47.097Z,7.15
2022-10-01T17:52:13.196Z,6.97
2022-10-01T17:54:39.318Z,7.38
2022-10-01T17:57:05.468Z,7.57
2022-10-01T17:59:31.994Z,6.63
2022-10-01T18:01:58.554Z,6.93
2022-10-01T18:04:27.585Z,7.57
2022-10-01T18:06:59.059Z,7.03
2022-10-01T18:09:25.812Z,7.38
2022-10-01T18:11:51.923Z,8.02
2022-10-01T18:14:18.053Z,7.57
2022-10-01T18:16:44.217Z,8.10
2022-10-01T18:21:59.181Z,7.78
2022-10-01T18:24:26.099Z,7.97
2022-10-01T18:26:52.747Z,8.93
2022-10-01T18:29:27.084Z,7.40
2022-10-01T18:32:15.009Z,7.85
2022-10-01T18:34:53.091Z,7.68
2022-10-01T18:37:24.127Z,8.35
2022-10-01T18:39:59.864Z,7.80
2022-10-01T18:42:37.332Z,7.20
2022-10-01T18:45:12.938Z,8.25
2022-10-01T18:47:53.267Z,7.40
2022-10-01T18:50:40.366Z,7.07
2022-10-01T18:53:21.505Z,6.65
2022-10-01T18:56:02.793Z,7.82
2022-10-01T18:58:56.455Z,7.22
2022-10-01T19:01:44.042Z,6.90
2022-10-01T19:04:52.139Z,7.63
2022-10-01T19:07:39.110Z,8.13
2022-10-01T19:10:23.781Z,7.47
2022-10-01T19:13:20.545Z,7.40
2022-10-01T19:16:04.522Z,7.45
2022-10-01T19:18:42.503Z,7.68
2022-10-01T19:21:28.352Z,7.75
2022-10-01T19:29:19.784Z,8.13
2022-10-01T19:31:55.133Z,7.25
2022-10-01T19:34:30.462Z,7.78
2022-10-01T19:37:03.619Z,7.65
2022-10-01T19:39:36.553Z,7.38
2022-10-01T19:42:08.206Z,7.95
2022-10-01T19:45:04.740Z,7.72
2022-10-01T19:47:40.661Z,7.18
2022-10-01T19:50:19.931Z,8.20
2022-10-01T19:52:50.574Z,8.20
2022-10-01T19:55:19.655Z,7.97
2022-10-01T19:57:46.891Z,8.25
2022-10-01T20:00:19.654Z,8.80
2022-10-01T20:03:00.736Z,8.32
2022-10-01T20:05:38.744Z,7.97
2022-10-01T20:08:33.217Z,7.90
2022-10-01T20:11:13.571Z,7.80
2022-10-01T20:14:07.301Z,7.97
2022-10-01T20:16:40.860Z,7.65
2022-10-01T20:19:37.346Z,8.10
2022-10-01T20:22:13.720Z,8.65
2022-10-01T20:24:54.065Z,8.88
2022-10-01T20:27:49.415Z,9.15
2022-10-01T20:30:20.178Z,8.85
2022-10-01T20:33:01.635Z,9.18
2022-10-01T20:35:35.395Z,8.65
2022-10-01T20:38:17.495Z,10.25
2022-10-01T20:40:57.227Z,9.10
2022-10-01T20:43:33.155Z,9.45
2022-10-01T20:46:06.267Z,9.38
2022-10-01T20:48:36.798Z,9.82
2022-10-01T20:51:12.260Z,9.50
2022-10-01T20:56:16.672Z,10.45
2022-10-01T20:59:10.202Z,9.63
2022-10-01T21:01:40.149Z,9.45
2022-10-01T21:04:13.251Z,9.35
2022-10-01T21:06:55.971Z,10.75
2022-10-01T21:09:31.157Z,8.65
2022-10-01T21:12:05.111Z,8.77
2022-10-01T21:14:38.721Z,8.85
2022-10-01T21:17:21.695Z,8.80
2022-10-01T21:20:00.136Z,8.85
2022-10-01T21:23:07.595Z,8.65
2022-10-01T21:26:01.781Z,8.18
2022-10-01T21:29:04.127Z,7.60
2022-10-01T21:31:56.354Z,7.18
2022-10-01T21:34:34.140Z,7.07
2022-10-01T21:37:16.895Z,6.88
2022-10-01T21:40:00.454Z,6.35
2022-10-01T21:42:50.660Z,6.90
2022-10-01T21:45:22.686Z,7.03
2022-10-01T21:48:22.761Z,6.40
2022-10-01T21:50:53.370Z,6.78
2022-10-01T21:53:36.362Z,7.38
2022-10-01T21:56:08.373Z,6.18
2022-10-01T21:58:49.834Z,6.85
2022-10-01T22:01:40.634Z,5.57
2022-10-01T22:04:21.742Z,6.15
2022-10-01T22:06:58.349Z,6.00
2022-10-01T22:09:44.506Z,5.45
2022-10-01T22:12:11.118Z,5.25
2022-10-01T22:14:38.607Z,6.88
2022-10-01T22:17:17.899Z,6.28
2022-10-01T22:19:49.065Z,5.45
2022-10-01T22:22:23.053Z,6.50
2022-10-01T22:24:52.538Z,5.88
2022-10-01T22:27:33.599Z,5.28
2022-10-01T22:30:06.573Z,5.93
2022-10-01T22:32:42.778Z,5.60
2022-10-01T22:35:17.271Z,5.95
2022-10-01T22:37:53.909Z,5.18
2022-10-01T22:40:32.821Z,5.32
2022-10-01T22:43:11.196Z,5.22
2022-10-01T22:46:08.329Z,5.95
2022-10-01T22:48:57.421Z,4.47
2022-10-01T22:51:46.667Z,4.88
2022-10-01T22:54:24.157Z,6.30
2022-10-01T22:57:11.450Z,5.93
2022-10-01T22:59:50.677Z,5.40
2022-10-01T23:02:48.019Z,5.32
2022-10-01T23:05:33.646Z,6.40
2022-10-01T23:08:17.662Z,5.40
2022-10-01T23:11:06.803Z,5.03
2022-10-01T23:13:45.810Z,5.43
2022-10-01T23:16:23.391Z,5.82
2022-10-01T23:18:58.841Z,5.50
2022-10-01T23:24:11.934Z,5.15
2022-10-01T23:26:55.814Z,5.70
2022-10-01T23:29:32.190Z,4.68
2022-10-01T23:32:25.274Z,4.72
2022-10-01T23:35:13.133Z,4.75
2022-10-01T23:38:04.251Z,5.13
2022-10-01T23:40:38.715Z,4.15
2022-10-01T23:43:11.544Z,5.28
2022-10-01T23:45:49.433Z,5.10
2022-10-01T23:48:21.124Z,4.18
2022-10-01T23:51:00.155Z,4.00
2022-10-01T23:53:43.158Z,4.10
2022-10-01T23:56:34.563Z,4.28
2022-10-01T23:59:12.911Z,4.10
